createdAt,value
2023-03-17T00:00:47.322Z,75.40
2023-03-17T00:03:29.154Z,72.90
2023-03-17T00:06:00.987Z,75.70
2023-03-17T00:08:34.022Z,74.70
2023-03-17T00:11:04.249Z,73.70
2023-03-17T00:13:34.896Z,66.00
2023-03-17T00:16:11.250Z,65.50
2023-03-17T00:18:41.052Z,63.40
2023-03-17T00:21:13.268Z,62.00
2023-03-17T00:23:48.085Z,65.90
2023-03-17T00:26:18.229Z,65.40
2023-03-17T00:28:50.548Z,63.70
2023-03-17T00:31:23.511Z,64.30
2023-03-17T00:33:55.755Z,63.50
2023-03-17T00:36:28.170Z,59.60
2023-03-17T00:38:58.463Z,57.70
2023-03-17T00:41:29.053Z,59.80
2023-03-17T00:43:58.500Z,57.80
2023-03-17T00:46:34.994Z,56.40
2023-03-17T00:49:11.955Z,55.20
2023-03-17T00:51:44.069Z,59.20
2023-03-17T00:54:13.847Z,57.00
2023-03-17T00:56:44.566Z,56.00
2023-03-17T00:59:21.551Z,59.80
2023-03-17T01:01:51.056Z,56.70
2023-03-17T01:04:20.305Z,60.40
2023-03-17T01:06:50.672Z,60.00
2023-03-17T01:09:25.747Z,60.30
2023-03-17T01:11:55.730Z,62.00
2023-03-17T01:14:25.445Z,67.20
2023-03-17T01:16:55.602Z,63.60
2023-03-17T01:19:24.996Z,63.80
2023-03-17T01:21:54.157Z,66.00
2023-03-17T01:24:23.378Z,67.80
2023-03-17T01:26:52.550Z,65.90
2023-03-17T01:29:22.228Z,68.10
2023-03-17T01:31:52.442Z,68.40
2023-03-17T01:34:22.670Z,68.20
2023-03-17T01:36:53.903Z,62.60
2023-03-17T01:39:23.156Z,61.10
2023-03-17T01:41:56.246Z,62.50
2023-03-17T01:44:25.574Z,63.00
2023-03-17T01:46:55.249Z,59.10
2023-03-17T01:49:28.952Z,60.20
2023-03-17T01:52:04.099Z,60.30
2023-03-17T01:54:40.710Z,56.10
2023-03-17T01:57:16.632Z,56.10
2023-03-17T01:59:51.811Z,55.60
2023-03-17T02:02:25.919Z,54.70
2023-03-17T02:04:57.178Z,52.50
2023-03-17T02:07:27.569Z,54.00
2023-03-17T02:09:58.255Z,58.50
2023-03-17T02:12:30.828Z,60.00
2023-03-17T02:15:00.946Z,54.30
2023-03-17T02:17:31.099Z,56.30
2023-03-17T02:20:13.852Z,54.70
2023-03-17T02:22:45.833Z,55.90
2023-03-17T02:25:19.248Z,56.50
2023-03-17T02:27:51.298Z,57.20
2023-03-17T02:30:24.374Z,61.60
2023-03-17T02:32:54.968Z,54.90
2023-03-17T02:35:24.700Z,58.40
2023-03-17T02:37:54.025Z,60.90
2023-03-17T02:40:23.743Z,56.30
2023-03-17T02:42:53.878Z,59.30
2023-03-17T02:45:24.109Z,57.00
2023-03-17T02:47:53.977Z,55.40
2023-03-17T02:50:27.344Z,54.50
2023-03-17T02:52:58.978Z,56.50
2023-03-17T02:55:28.174Z,54.90
2023-03-17T02:57:58.450Z,57.70
2023-03-17T03:00:29.099Z,54.90
2023-03-17T03:02:59.092Z,57.20
2023-03-17T03:05:28.820Z,56.80
2023-03-17T03:07:58.891Z,57.10
2023-03-17T03:10:28.548Z,54.90
2023-03-17T03:12:58.726Z,57.00
2023-03-17T03:15:27.917Z,54.20
2023-03-17T03:17:58.147Z,59.20
2023-03-17T03:20:27.547Z,54.00
2023-03-17T03:22:56.887Z,56.20
2023-03-17T03:25:26.462Z,54.60
2023-03-17T03:27:56.178Z,58.10
2023-03-17T03:30:26.508Z,57.10
2023-03-17T03:32:56.298Z,53.80
2023-03-17T03:35:26.132Z,56.60
2023-03-17T03:37:55.823Z,54.90
2023-03-17T03:40:25.357Z,52.30
2023-03-17T03:42:54.485Z,54.50
2023-03-17T03:45:24.966Z,51.50
2023-03-17T03:47:54.113Z,51.10
2023-03-17T03:50:23.646Z,53.70
2023-03-17T03:52:52.809Z,54.80
2023-03-17T03:55:22.106Z,54.70
2023-03-17T03:57:51.886Z,61.60
2023-03-17T04:00:22.348Z,64.30
2023-03-17T04:02:52.185Z,58.30
2023-03-17T04:05:21.642Z,54.10
2023-03-17T04:07:52.174Z,53.00
2023-03-17T04:10:22.634Z,52.80
2023-03-17T04:12:53.032Z,52.00
2023-03-17T04:15:22.625Z,52.90
2023-03-17T04:17:55.104Z,52.40
2023-03-17T04:20:24.275Z,51.20
2023-03-17T04:22:53.447Z,55.80
2023-03-17T04:25:22.716Z,51.90
2023-03-17T04:27:51.864Z,50.60
2023-03-17T04:30:21.523Z,49.90
2023-03-17T04:32:50.700Z,48.20
2023-03-17T04:35:23.098Z,49.20
2023-03-17T04:37:52.219Z,47.40
2023-03-17T04:40:22.321Z,46.90
2023-03-17T04:42:52.021Z,47.40
2023-03-17T04:45:22.368Z,46.90
2023-03-17T04:47:51.487Z,46.30
2023-03-17T04:50:20.890Z,44.20
2023-03-17T04:52:50.109Z,44.50
2023-03-17T04:55:21.249Z,43.40
2023-03-17T04:57:50.504Z,45.70
2023-03-17T05:00:21.356Z,46.20
2023-03-17T05:02:50.575Z,55.90
2023-03-17T05:05:20.359Z,56.30
2023-03-17T05:07:50.157Z,47.90
2023-03-17T05:10:19.481Z,47.70
2023-03-17T05:12:48.662Z,44.00
2023-03-17T05:15:18.304Z,47.00
2023-03-17T05:17:47.482Z,47.70
2023-03-17T05:20:17.184Z,47.20
2023-03-17T05:22:46.585Z,43.90
2023-03-17T05:25:17.440Z,49.70
2023-03-17T05:27:47.245Z,46.80
2023-03-17T05:30:18.391Z,48.40
2023-03-17T05:32:47.610Z,56.70
2023-03-17T05:35:18.215Z,55.80
2023-03-17T05:37:47.873Z,55.60
2023-03-17T05:40:18.050Z,56.10
2023-03-17T05:42:47.506Z,59.20
2023-03-17T05:45:18.291Z,58.10
2023-03-17T05:47:47.721Z,53.40
2023-03-17T05:50:18.334Z,48.90
2023-03-17T05:52:48.213Z,45.60
2023-03-17T05:55:17.549Z,50.30
2023-03-17T05:57:46.763Z,47.40
2023-03-17T06:00:21.018Z,47.90
2023-03-17T06:02:50.262Z,47.60
2023-03-17T06:05:20.087Z,51.00
2023-03-17T06:07:54.943Z,48.10
2023-03-17T06:10:26.593Z,50.40
2023-03-17T06:12:57.224Z,43.60
2023-03-17T06:15:27.201Z,46.50
2023-03-17T06:17:56.394Z,44.60
2023-03-17T06:20:27.169Z,46.20
2023-03-17T06:23:04.303Z,42.30
2023-03-17T06:25:35.569Z,41.00
2023-03-17T06:28:06.032Z,45.00
2023-03-17T06:30:43.137Z,42.90
2023-03-17T06:33:12.549Z,40.10
2023-03-17T06:35:41.913Z,40.10
2023-03-17T06:38:11.429Z,37.50
2023-03-17T06:40:40.855Z,37.60
2023-03-17T06:43:09.999Z,34.60
2023-03-17T06:45:39.478Z,34.40
2023-03-17T06:48:08.673Z,33.30
2023-03-17T06:50:38.246Z,35.30
2023-03-17T06:53:07.685Z,35.30
2023-03-17T06:55:36.932Z,34.00
2023-03-17T06:58:06.144Z,36.50
2023-03-17T07:00:35.301Z,32.00
2023-03-17T07:03:05.982Z,35.30
2023-03-17T07:05:35.317Z,33.60
2023-03-17T07:08:05.001Z,33.60
2023-03-17T07:10:34.203Z,33.60
2023-03-17T07:13:05.480Z,34.30
2023-03-17T07:15:35.505Z,34.70
2023-03-17T07:18:06.464Z,33.10
2023-03-17T07:20:35.928Z,32.10
2023-03-17T07:23:05.070Z,34.70
2023-03-17T07:25:36.296Z,32.90
2023-03-17T07:28:05.744Z,32.10
2023-03-17T07:30:36.089Z,33.00
2023-03-17T07:33:05.348Z,32.50
2023-03-17T07:35:34.890Z,35.20
2023-03-17T07:38:06.049Z,32.60
2023-03-17T07:40:35.619Z,35.60
2023-03-17T07:43:05.157Z,31.40
2023-03-17T07:45:35.533Z,39.10
2023-03-17T07:48:06.594Z,32.50
2023-03-17T07:50:37.078Z,35.20
2023-03-17T07:53:06.277Z,32.70
2023-03-17T07:55:37.309Z,33.60
2023-03-17T07:58:08.302Z,34.90
2023-03-17T08:00:38.160Z,33.80
2023-03-17T08:03:10.750Z,30.90
2023-03-17T08:05:41.275Z,28.80
2023-03-17T08:08:10.592Z,30.50
2023-03-17T08:10:39.906Z,30.70
2023-03-17T08:13:10.022Z,31.00
2023-03-17T08:15:39.241Z,29.50
2023-03-17T08:18:09.433Z,29.50
2023-03-17T08:20:38.629Z,32.30
2023-03-17T08:23:07.996Z,27.80
2023-03-17T08:25:37.203Z,29.90
2023-03-17T08:28:07.228Z,26.30
2023-03-17T08:30:37.971Z,23.10
2023-03-17T08:33:08.574Z,24.60
2023-03-17T08:35:40.922Z,24.70
2023-03-17T08:38:11.811Z,22.80
2023-03-17T08:40:42.171Z,25.30
2023-03-17T08:43:11.348Z,22.60
2023-03-17T08:45:41.838Z,23.40
2023-03-17T08:48:11.041Z,25.60
2023-03-17T08:50:41.415Z,24.80
2023-03-17T08:53:11.360Z,24.30
2023-03-17T08:55:40.625Z,26.10
2023-03-17T08:58:09.928Z,32.30
2023-03-17T09:00:40.291Z,28.10
2023-03-17T09:03:10.261Z,23.70
2023-03-17T09:05:39.436Z,25.40
2023-03-17T09:08:08.823Z,23.40
2023-03-17T09:10:38.040Z,26.40
2023-03-17T09:13:08.532Z,38.30
2023-03-17T09:15:38.218Z,31.20
2023-03-17T09:18:08.781Z,23.10
2023-03-17T09:20:39.390Z,24.30
2023-03-17T09:23:11.166Z,22.80
2023-03-17T09:25:42.294Z,21.30
2023-03-17T09:28:13.437Z,220.70
2023-03-17T09:30:43.216Z,48.90
2023-03-17T09:33:14.302Z,44.50
2023-03-17T09:35:43.534Z,83.60
2023-03-17T09:38:13.134Z,21.40
2023-03-17T09:40:48.526Z,34.90
2023-03-17T09:43:28.776Z,22.30
2023-03-17T09:46:03.583Z,55.30
2023-03-17T09:48:50.095Z,21.00
2023-03-17T09:51:20.675Z,32.30
2023-03-17T09:53:59.298Z,20.80
2023-03-17T09:56:32.521Z,20.80
2023-03-17T09:59:06.293Z,19.80
2023-03-17T10:01:37.067Z,20.20
2023-03-17T10:04:06.481Z,27.90
2023-03-17T10:06:41.162Z,23.90
2023-03-17T10:09:18.669Z,27.80
2023-03-17T10:11:52.288Z,27.30
2023-03-17T10:14:35.211Z,29.00
2023-03-17T10:17:12.418Z,18.90
2023-03-17T10:19:45.944Z,28.70
2023-03-17T10:22:22.165Z,17.80
2023-03-17T10:24:55.071Z,16.90
2023-03-17T10:27:24.926Z,18.70
2023-03-17T10:29:54.167Z,21.00
2023-03-17T10:32:23.450Z,27.30
2023-03-17T10:34:54.272Z,20.50
2023-03-17T10:37:26.256Z,18.70
2023-03-17T10:39:58.003Z,17.00
2023-03-17T10:42:29.040Z,15.70
2023-03-17T10:45:01.525Z,17.70
2023-03-17T10:47:35.511Z,20.90
2023-03-17T10:50:20.427Z,18.10
2023-03-17T10:52:54.535Z,16.30
2023-03-17T10:55:29.456Z,15.00
2023-03-17T10:58:04.205Z,17.30
2023-03-17T11:00:37.851Z,14.30
2023-03-17T11:03:16.616Z,15.80
2023-03-17T11:06:00.868Z,17.70
2023-03-17T11:08:34.905Z,16.90
2023-03-17T11:11:08.495Z,15.10
2023-03-17T11:13:38.177Z,15.00
2023-03-17T11:16:15.997Z,15.90
2023-03-17T11:18:47.881Z,14.10
2023-03-17T11:21:23.755Z,15.90
2023-03-17T11:23:55.043Z,13.70
2023-03-17T11:26:47.970Z,16.70
2023-03-17T11:29:23.999Z,18.20
2023-03-17T11:32:02.003Z,14.00
2023-03-17T11:34:47.719Z,14.60
2023-03-17T11:37:29.991Z,16.20
2023-03-17T11:40:13.982Z,15.20
2023-03-17T11:42:54.780Z,17.80
2023-03-17T11:45:29.318Z,13.40
2023-03-17T11:48:23.243Z,13.40
2023-03-17T11:50:56.521Z,13.60
2023-03-17T11:53:38.810Z,13.50
2023-03-17T11:56:14.787Z,16.60
2023-03-17T11:58:47.788Z,13.50
2023-03-17T12:01:21.750Z,12.60
2023-03-17T12:03:57.672Z,11.20
2023-03-17T12:06:31.964Z,13.80
2023-03-17T12:09:09.806Z,14.40
2023-03-17T12:11:44.031Z,11.70
2023-03-17T12:14:26.484Z,12.10
2023-03-17T12:17:05.239Z,9.60
2023-03-17T12:19:42.685Z,14.10
2023-03-17T12:22:21.220Z,12.10
2023-03-17T12:25:02.314Z,10.30
2023-03-17T12:27:36.878Z,10.30
2023-03-17T12:30:15.443Z,10.90
2023-03-17T12:32:52.603Z,11.10
2023-03-17T12:35:28.356Z,11.00
2023-03-17T12:38:00.802Z,9.70
2023-03-17T12:40:37.487Z,11.20
2023-03-17T12:43:46.305Z,12.70
2023-03-17T12:46:29.381Z,10.30
2023-03-17T12:49:32.689Z,8.80
2023-03-17T12:52:23.855Z,13.80
2023-03-17T12:54:53.988Z,11.10
2023-03-17T12:57:27.994Z,9.50
2023-03-17T13:00:05.452Z,11.10
2023-03-17T13:02:38.739Z,10.50
2023-03-17T13:05:14.256Z,12.50
2023-03-17T13:07:51.203Z,12.80
2023-03-17T13:10:39.523Z,13.30
2023-03-17T13:13:35.128Z,10.80
2023-03-17T13:16:26.694Z,12.00
2023-03-17T13:19:18.664Z,14.30
2023-03-17T13:21:51.968Z,13.40
2023-03-17T13:24:48.795Z,13.50
2023-03-17T13:27:45.481Z,14.60
2023-03-17T13:30:56.359Z,12.60
2023-03-17T13:33:32.046Z,13.50
2023-03-17T13:36:19.980Z,82.80
2023-03-17T13:39:18.204Z,10.30
2023-03-17T13:42:05.494Z,10.70
2023-03-17T13:45:00.654Z,13.90
2023-03-17T13:47:35.001Z,11.90
2023-03-17T13:50:12.806Z,9.40
2023-03-17T13:52:47.132Z,11.20
2023-03-17T13:56:02.598Z,51.20
2023-03-17T13:58:49.885Z,17.60
2023-03-17T14:01:21.003Z,16.60
2023-03-17T14:03:53.516Z,14.20
2023-03-17T14:06:27.499Z,11.10
2023-03-17T14:09:02.454Z,11.40
2023-03-17T14:11:35.315Z,9.90
2023-03-17T14:14:29.673Z,11.00
2023-03-17T14:17:08.663Z,13.50
2023-03-17T14:19:40.863Z,12.40
2023-03-17T14:22:24.236Z,13.20
2023-03-17T14:24:55.001Z,13.70
2023-03-17T14:27:26.562Z,9.20
2023-03-17T14:29:55.988Z,11.40
2023-03-17T14:32:25.854Z,12.00
2023-03-17T14:34:59.074Z,12.70
2023-03-17T14:37:29.476Z,16.40
2023-03-17T14:39:59.101Z,11.60
2023-03-17T14:42:29.949Z,13.10
2023-03-17T14:45:04.458Z,12.80
2023-03-17T14:47:39.297Z,12.10
2023-03-17T14:50:17.824Z,10.70
2023-03-17T14:52:49.270Z,13.50
2023-03-17T14:55:19.602Z,14.80
2023-03-17T14:57:53.593Z,25.50
2023-03-17T15:00:38.030Z,13.60
2023-03-17T15:03:18.861Z,12.60
2023-03-17T15:05:49.143Z,13.90
2023-03-17T15:08:40.772Z,14.40
2023-03-17T15:11:18.525Z,11.10
2023-03-17T15:13:49.258Z,13.00
2023-03-17T15:16:23.171Z,13.90
2023-03-17T15:19:05.711Z,13.90
2023-03-17T15:21:38.609Z,12.70
2023-03-17T15:24:25.968Z,13.60
2023-03-17T15:27:04.241Z,11.80
2023-03-17T15:29:34.335Z,11.40
2023-03-17T15:32:15.205Z,12.90
2023-03-17T15:34:44.399Z,14.50
2023-03-17T15:37:17.589Z,13.70
2023-03-17T15:39:47.389Z,12.90
2023-03-17T15:42:18.955Z,14.90
2023-03-17T15:44:48.159Z,13.00
2023-03-17T15:47:19.509Z,14.80
2023-03-17T15:49:50.571Z,13.20
2023-03-17T15:52:24.306Z,21.50
2023-03-17T15:54:54.861Z,53.90
2023-03-17T15:57:24.931Z,24.40
2023-03-17T15:59:54.160Z,15.90
2023-03-17T16:02:32.136Z,15.40
2023-03-17T16:05:05.371Z,14.60
2023-03-17T16:07:34.856Z,13.80
2023-03-17T16:10:22.241Z,17.40
2023-03-17T16:12:51.826Z,14.90
2023-03-17T16:15:23.804Z,14.60
2023-03-17T16:17:55.560Z,15.80
2023-03-17T16:20:27.014Z,17.50
2023-03-17T16:22:58.748Z,14.90
2023-03-17T16:25:29.557Z,15.70
2023-03-17T16:28:01.714Z,23.20
2023-03-17T16:30:33.243Z,21.80
2023-03-17T16:33:09.039Z,27.40
2023-03-17T16:35:38.328Z,29.40
2023-03-17T16:38:10.959Z,34.30
2023-03-17T16:40:40.889Z,17.90
2023-03-17T16:43:25.311Z,16.20
2023-03-17T16:45:57.170Z,19.90
2023-03-17T16:48:26.816Z,17.10
2023-03-17T16:50:56.703Z,16.70
2023-03-17T16:53:26.037Z,13.90
2023-03-17T16:55:55.682Z,73.60
2023-03-17T16:58:26.889Z,73.70
2023-03-17T17:00:59.036Z,21.40
2023-03-17T17:03:30.929Z,34.00
2023-03-17T17:06:00.092Z,41.60
2023-03-17T17:08:29.338Z,29.10
2023-03-17T17:10:58.663Z,22.30
2023-03-17T17:13:27.861Z,20.80
2023-03-17T17:15:57.229Z,29.60
2023-03-17T17:18:26.448Z,22.60
2023-03-17T17:20:56.640Z,22.80
2023-03-17T17:23:26.964Z,29.70
2023-03-17T17:25:56.121Z,25.30
2023-03-17T17:28:26.547Z,19.60
2023-03-17T17:30:57.995Z,25.10
2023-03-17T17:33:27.631Z,23.90
2023-03-17T17:35:56.938Z,23.10
2023-03-17T17:38:27.794Z,17.70
2023-03-17T17:40:58.414Z,19.70
2023-03-17T17:43:27.696Z,21.10
2023-03-17T17:45:56.862Z,21.40
2023-03-17T17:48:27.495Z,20.40
2023-03-17T17:50:57.718Z,19.10
2023-03-17T17:53:26.914Z,21.20
2023-03-17T17:55:57.163Z,24.00
2023-03-17T17:58:26.797Z,24.30
2023-03-17T18:00:57.004Z,30.90
2023-03-17T18:03:26.974Z,25.10
2023-03-17T18:05:58.485Z,21.30
2023-03-17T18:08:28.305Z,25.10
2023-03-17T18:10:57.557Z,27.50
2023-03-17T18:13:26.769Z,27.10
2023-03-17T18:15:55.970Z,27.30
2023-03-17T18:18:25.231Z,23.40
2023-03-17T18:20:54.413Z,28.60
2023-03-17T18:23:23.620Z,27.40
2023-03-17T18:26:00.280Z,26.00
2023-03-17T18:28:29.566Z,26.60
2023-03-17T18:31:03.542Z,26.60
2023-03-17T18:33:33.048Z,28.60
2023-03-17T18:36:05.342Z,29.70
2023-03-17T18:38:35.187Z,38.40
2023-03-17T18:41:06.984Z,47.10
2023-03-17T18:43:36.179Z,50.00
2023-03-17T18:46:06.045Z,69.30
2023-03-17T18:48:35.742Z,57.10
2023-03-17T18:51:05.576Z,62.00
2023-03-17T18:53:35.022Z,40.30
2023-03-17T18:56:04.215Z,41.50
2023-03-17T18:58:33.365Z,32.50
2023-03-17T19:01:03.372Z,28.80
2023-03-17T19:03:32.755Z,30.30
2023-03-17T19:06:10.580Z,28.70
2023-03-17T19:08:40.065Z,26.70
2023-03-17T19:11:11.007Z,26.30
2023-03-17T19:13:41.837Z,30.40
2023-03-17T19:16:11.601Z,28.80
2023-03-17T19:18:42.226Z,31.20
2023-03-17T19:21:12.649Z,32.90
2023-03-17T19:23:42.307Z,28.90
2023-03-17T19:26:11.530Z,27.80
2023-03-17T19:28:40.771Z,28.60
2023-03-17T19:31:10.187Z,33.10
2023-03-17T19:33:39.600Z,37.30
2023-03-17T19:36:11.687Z,26.20
2023-03-17T19:38:41.266Z,39.20
2023-03-17T19:41:10.601Z,35.70
2023-03-17T19:43:41.654Z,28.20
2023-03-17T19:46:12.230Z,26.70
2023-03-17T19:48:41.543Z,43.00
2023-03-17T19:51:10.899Z,43.90
2023-03-17T19:53:40.457Z,24.30
2023-03-17T19:56:10.399Z,23.30
2023-03-17T19:58:39.989Z,29.20
2023-03-17T20:01:09.460Z,27.50
2023-03-17T20:03:41.989Z,23.20
2023-03-17T20:06:12.123Z,23.40
2023-03-17T20:08:42.696Z,28.10
2023-03-17T20:11:13.388Z,26.20
2023-03-17T20:13:42.673Z,25.70
2023-03-17T20:16:12.395Z,23.70
2023-03-17T20:18:41.707Z,23.80
2023-03-17T20:21:13.936Z,24.10
2023-03-17T20:23:43.124Z,34.50
2023-03-17T20:26:12.554Z,58.10
2023-03-17T20:28:41.817Z,54.20
2023-03-17T20:31:11.108Z,39.50
2023-03-17T20:33:40.702Z,303.30
2023-03-17T20:36:12.245Z,298.00
2023-03-17T20:38:43.166Z,56.10
2023-03-17T20:41:14.200Z,239.80
2023-03-17T20:43:43.424Z,205.10
2023-03-17T20:46:16.914Z,87.40
2023-03-17T20:48:47.751Z,73.70
2023-03-17T20:51:17.402Z,52.80
2023-03-17T20:53:48.997Z,41.90
2023-03-17T20:56:21.777Z,33.90
2023-03-17T20:58:52.632Z,25.60
2023-03-17T21:01:22.955Z,27.70
2023-03-17T21:03:52.976Z,24.60
2023-03-17T21:06:24.796Z,23.70
2023-03-17T21:08:55.691Z,22.90
2023-03-17T21:11:26.094Z,23.60
2023-03-17T21:13:55.602Z,23.70
2023-03-17T21:16:27.233Z,26.00
2023-03-17T21:18:56.564Z,26.30
2023-03-17T21:21:26.500Z,26.00
2023-03-17T21:23:56.010Z,22.90
2023-03-17T21:26:25.207Z,25.40
2023-03-17T21:28:56.043Z,24.00
2023-03-17T21:31:25.806Z,23.90
2023-03-17T21:33:54.999Z,21.90
2023-03-17T21:36:24.591Z,22.00
2023-03-17T21:38:53.782Z,20.80
2023-03-17T21:41:29.801Z,20.40
2023-03-17T21:43:59.163Z,21.30
2023-03-17T21:46:29.065Z,20.40
2023-03-17T21:48:58.682Z,19.30
2023-03-17T21:51:30.399Z,19.10
2023-03-17T21:53:59.929Z,18.90
2023-03-17T21:56:29.488Z,17.00
2023-03-17T21:58:58.937Z,17.50
2023-03-17T22:01:28.747Z,20.50
2023-03-17T22:03:59.065Z,19.90
2023-03-17T22:06:28.955Z,18.10
2023-03-17T22:08:58.193Z,17.50
2023-03-17T22:11:27.606Z,20.50
2023-03-17T22:13:58.392Z,20.30
2023-03-17T22:16:27.625Z,20.30
2023-03-17T22:18:56.846Z,20.00
2023-03-17T22:21:26.241Z,18.60
2023-03-17T22:23:55.496Z,16.80
2023-03-17T22:26:24.664Z,17.80
2023-03-17T22:28:54.176Z,19.50
2023-03-17T22:31:26.671Z,16.90
2023-03-17T22:33:58.704Z,18.60
2023-03-17T22:36:29.165Z,17.20
2023-03-17T22:38:59.297Z,16.80
2023-03-17T22:41:30.177Z,21.50
2023-03-17T22:43:59.681Z,17.10
2023-03-17T22:46:29.151Z,17.40
2023-03-17T22:48:58.292Z,18.30
2023-03-17T22:51:27.889Z,17.40
2023-03-17T22:53:57.746Z,20.10
2023-03-17T22:56:27.588Z,19.00
2023-03-17T22:58:57.016Z,19.80
2023-03-17T23:01:26.796Z,17.30
2023-03-17T23:03:56.445Z,16.70
2023-03-17T23:06:25.667Z,15.60
2023-03-17T23:08:54.874Z,16.70
2023-03-17T23:11:26.318Z,19.00
2023-03-17T23:13:56.882Z,17.00
2023-03-17T23:16:26.657Z,16.60
2023-03-17T23:18:55.873Z,16.00
2023-03-17T23:21:28.984Z,17.70
2023-03-17T23:23:58.570Z,17.80
2023-03-17T23:26:28.559Z,19.70
2023-03-17T23:28:57.836Z,17.90
2023-03-17T23:31:27.065Z,19.00
2023-03-17T23:33:56.571Z,16.90
2023-03-17T23:36:25.785Z,17.30
2023-03-17T23:38:54.968Z,15.70
2023-03-17T23:41:24.130Z,17.50
2023-03-17T23:43:53.370Z,18.50
2023-03-17T23:46:22.567Z,18.40
2023-03-17T23:48:52.597Z,17.10
2023-03-17T23:51:21.813Z,17.20
2023-03-17T23:53:52.364Z,17.40
2023-03-17T23:56:21.731Z,16.70
2023-03-17T23:58:51.575Z,16.80
